createdAt,value
2023-03-12T00:02:15.937Z,2.88
2023-03-12T00:04:42.273Z,2.50
2023-03-12T00:07:08.933Z,2.78
2023-03-12T00:09:36.779Z,2.65
2023-03-12T00:12:03.222Z,2.38
2023-03-12T00:14:29.624Z,2.25
2023-03-12T00:16:56.180Z,2.70
2023-03-12T00:19:22.764Z,2.88
2023-03-12T00:21:49.080Z,2.85
2023-03-12T00:24:16.664Z,2.60
2023-03-12T00:26:43.280Z,2.85
2023-03-12T00:29:09.612Z,2.85
2023-03-12T00:31:36.052Z,2.60
2023-03-12T00:34:02.470Z,2.33
2023-03-12T00:36:29.925Z,2.95
2023-03-12T00:38:56.926Z,3.10
2023-03-12T00:41:23.404Z,2.45
2023-03-12T00:43:50.486Z,2.72
2023-03-12T00:46:17.067Z,2.88
2023-03-12T00:48:43.880Z,2.60
2023-03-12T00:51:10.445Z,2.85
2023-03-12T00:53:36.812Z,3.00
2023-03-12T00:56:04.339Z,2.97
2023-03-12T00:58:30.826Z,3.35
2023-03-12T01:00:57.228Z,3.20
2023-03-12T01:03:23.586Z,2.97
2023-03-12T01:05:54.009Z,2.78
2023-03-12T01:08:20.988Z,2.83
2023-03-12T01:10:47.321Z,2.40
2023-03-12T01:13:13.665Z,3.00
2023-03-12T01:15:40.004Z,2.53
2023-03-12T01:18:06.377Z,2.70
2023-03-12T01:20:32.733Z,2.92
2023-03-12T01:22:59.157Z,2.33
2023-03-12T01:25:25.501Z,2.50
2023-03-12T01:27:52.693Z,2.30
2023-03-12T01:30:19.176Z,2.72
2023-03-12T01:32:45.530Z,2.08
2023-03-12T01:35:11.980Z,2.60
2023-03-12T01:37:38.437Z,2.47
2023-03-12T01:40:05.025Z,2.40
2023-03-12T01:42:31.408Z,1.90
2023-03-12T01:44:59.269Z,2.00
2023-03-12T01:47:25.958Z,2.10
2023-03-12T01:49:53.423Z,1.70
2023-03-12T01:52:38.157Z,2.33
2023-03-12T01:55:10.531Z,2.30
2023-03-12T01:57:43.177Z,2.05
2023-03-12T02:00:14.654Z,2.50
2023-03-12T02:02:42.050Z,2.53
2023-03-12T02:05:17.048Z,2.25
2023-03-12T02:07:43.358Z,2.53
2023-03-12T02:10:10.119Z,2.15
2023-03-12T02:12:36.490Z,2.00
2023-03-12T02:15:02.962Z,2.20
2023-03-12T02:17:30.488Z,2.40
2023-03-12T02:20:16.280Z,2.70
2023-03-12T02:22:43.946Z,3.13
2023-03-12T02:25:16.173Z,2.05
2023-03-12T02:27:42.765Z,2.50
2023-03-12T02:30:09.622Z,2.60
2023-03-12T02:32:38.371Z,2.88
2023-03-12T02:35:06.301Z,2.30
2023-03-12T02:37:32.710Z,2.08
2023-03-12T02:40:17.241Z,2.40
2023-03-12T02:42:44.730Z,2.72
2023-03-12T02:45:11.231Z,2.38
2023-03-12T02:47:37.519Z,2.53
2023-03-12T02:50:04.038Z,2.53
2023-03-12T02:52:35.490Z,2.83
2023-03-12T02:55:02.375Z,2.20
2023-03-12T02:57:28.750Z,2.20
2023-03-12T02:59:55.126Z,3.38
2023-03-12T03:02:21.499Z,2.10
2023-03-12T03:04:47.882Z,1.67
2023-03-12T03:07:14.911Z,2.03
2023-03-12T03:09:41.317Z,2.25
2023-03-12T03:12:07.781Z,2.38
2023-03-12T03:14:34.096Z,1.58
2023-03-12T03:17:00.459Z,2.58
2023-03-12T03:19:26.864Z,1.83
2023-03-12T03:21:53.210Z,1.83
2023-03-12T03:24:19.675Z,2.35
2023-03-12T03:26:46.370Z,2.28
2023-03-12T03:29:12.670Z,1.70
2023-03-12T03:31:38.970Z,2.10
2023-03-12T03:34:05.338Z,1.60
2023-03-12T03:36:31.740Z,1.75
2023-03-12T03:38:58.131Z,1.90
2023-03-12T03:41:26.002Z,1.98
2023-03-12T03:43:55.579Z,2.38
2023-03-12T03:46:22.045Z,1.75
2023-03-12T03:48:48.524Z,1.98
2023-03-12T03:51:14.879Z,2.35
2023-03-12T03:53:41.202Z,1.90
2023-03-12T03:56:12.074Z,2.92
2023-03-12T03:58:38.402Z,1.92
2023-03-12T04:01:06.166Z,2.30
2023-03-12T04:03:32.750Z,2.20
2023-03-12T04:06:00.046Z,2.88
2023-03-12T04:08:26.898Z,2.47
2023-03-12T04:10:53.357Z,2.15
2023-03-12T04:13:19.706Z,2.10
2023-03-12T04:15:46.855Z,2.35
2023-03-12T04:18:13.281Z,2.22
2023-03-12T04:20:39.601Z,3.10
2023-03-12T04:23:05.930Z,3.13
2023-03-12T04:25:32.319Z,2.88
2023-03-12T04:27:58.730Z,2.97
2023-03-12T04:30:25.047Z,2.50
2023-03-12T04:32:51.649Z,2.90
2023-03-12T04:35:18.030Z,2.90
2023-03-12T04:37:44.349Z,2.50
2023-03-12T04:40:11.020Z,2.20
2023-03-12T04:42:37.842Z,2.95
2023-03-12T04:45:05.308Z,3.03
2023-03-12T04:47:34.705Z,3.20
2023-03-12T04:50:01.014Z,2.78
2023-03-12T04:52:27.438Z,3.05
2023-03-12T04:54:54.232Z,3.38
2023-03-12T04:57:20.846Z,2.42
2023-03-12T04:59:47.310Z,2.70
2023-03-12T05:02:13.634Z,3.13
2023-03-12T05:04:39.954Z,2.88
2023-03-12T05:07:06.267Z,3.50
2023-03-12T05:09:32.607Z,2.45
2023-03-12T05:11:58.996Z,2.10
2023-03-12T05:14:25.391Z,2.70
2023-03-12T05:16:51.823Z,3.28
2023-03-12T05:19:18.129Z,3.10
2023-03-12T05:21:44.455Z,3.25
2023-03-12T05:24:11.356Z,2.65
2023-03-12T05:26:37.776Z,2.90
2023-03-12T05:29:05.131Z,2.55
2023-03-12T05:31:34.945Z,3.15
2023-03-12T05:34:02.315Z,2.70
2023-03-12T05:36:28.753Z,3.33
2023-03-12T05:38:55.178Z,3.30
2023-03-12T05:41:22.907Z,2.85
2023-03-12T05:43:49.321Z,3.50
2023-03-12T05:46:16.025Z,3.15
2023-03-12T05:48:42.717Z,3.78
2023-03-12T05:51:09.109Z,3.67
2023-03-12T05:53:35.432Z,2.60
2023-03-12T05:56:05.802Z,4.05
2023-03-12T05:58:33.103Z,3.05
2023-03-12T06:00:59.503Z,3.90
2023-03-12T06:03:26.165Z,3.67
2023-03-12T06:05:55.150Z,3.63
2023-03-12T06:08:22.317Z,3.60
2023-03-12T06:10:50.558Z,3.30
2023-03-12T06:13:16.970Z,3.17
2023-03-12T06:15:43.391Z,3.50
2023-03-12T06:18:09.704Z,3.47
2023-03-12T06:20:36.070Z,3.22
2023-03-12T06:23:02.429Z,3.10
2023-03-12T06:25:28.829Z,2.78
2023-03-12T06:27:55.212Z,3.03
2023-03-12T06:30:21.661Z,3.42
2023-03-12T06:32:47.978Z,3.08
2023-03-12T06:35:14.362Z,3.22
2023-03-12T06:37:40.678Z,3.55
2023-03-12T06:40:10.000Z,3.72
2023-03-12T06:42:36.512Z,3.70
2023-03-12T06:45:02.965Z,3.70
2023-03-12T06:47:29.356Z,3.90
2023-03-12T06:49:55.757Z,3.63
2023-03-12T06:52:22.091Z,4.40
2023-03-12T06:54:48.417Z,4.78
2023-03-12T06:57:16.588Z,4.07
2023-03-12T06:59:43.127Z,4.22
2023-03-12T07:02:12.532Z,4.93
2023-03-12T07:04:38.887Z,4.82
2023-03-12T07:07:05.272Z,5.15
2023-03-12T07:09:32.067Z,5.55
2023-03-12T07:11:58.431Z,5.43
2023-03-12T07:14:24.741Z,6.55
2023-03-12T07:16:51.105Z,7.15
2023-03-12T07:19:19.372Z,7.45
2023-03-12T07:21:45.751Z,7.50
2023-03-12T07:24:12.085Z,7.78
2023-03-12T07:26:38.521Z,7.50
2023-03-12T07:29:05.097Z,8.93
2023-03-12T07:31:31.551Z,8.35
2023-03-12T07:33:58.114Z,8.60
2023-03-12T07:36:24.755Z,9.65
2023-03-12T07:38:51.415Z,8.52
2023-03-12T07:41:17.807Z,8.32
2023-03-12T07:43:44.532Z,8.70
2023-03-12T07:46:11.065Z,8.98
2023-03-12T07:48:37.487Z,9.02
2023-03-12T07:51:04.117Z,8.90
2023-03-12T07:53:30.461Z,8.55
2023-03-12T07:55:56.880Z,7.45
2023-03-12T07:58:23.498Z,8.52
2023-03-12T08:00:50.504Z,7.63
2023-03-12T08:03:17.223Z,7.97
2023-03-12T08:05:43.766Z,8.75
2023-03-12T08:08:10.272Z,7.85
2023-03-12T08:10:37.204Z,8.93
2023-03-12T08:13:03.710Z,9.02
2023-03-12T08:15:30.010Z,9.10
2023-03-12T08:17:56.381Z,10.07
2023-03-12T08:20:22.760Z,9.95
2023-03-12T08:22:49.130Z,9.70
2023-03-12T08:25:16.061Z,10.02
2023-03-12T08:27:42.403Z,10.48
2023-03-12T08:30:09.229Z,10.48
2023-03-12T08:32:35.649Z,9.85
2023-03-12T08:35:02.157Z,10.77
2023-03-12T08:37:28.479Z,10.18
2023-03-12T08:39:54.874Z,9.63
2023-03-12T08:42:21.325Z,10.68
2023-03-12T08:44:47.649Z,10.90
2023-03-12T08:47:13.988Z,9.65
2023-03-12T08:49:40.330Z,9.27
2023-03-12T08:52:06.719Z,9.77
2023-03-12T08:54:33.179Z,8.07
2023-03-12T08:56:59.921Z,7.75
2023-03-12T08:59:26.394Z,6.50
2023-03-12T09:01:52.772Z,5.47
2023-03-12T09:04:19.840Z,4.25
2023-03-12T09:06:46.610Z,3.00
2023-03-12T09:09:13.020Z,2.95
2023-03-12T09:11:39.856Z,2.42
2023-03-12T09:16:53.429Z,2.85
2023-03-12T09:19:20.629Z,2.70
2023-03-12T09:21:47.146Z,3.47
2023-03-12T09:24:13.539Z,3.33
2023-03-12T09:26:39.958Z,3.25
2023-03-12T09:29:06.308Z,2.35
2023-03-12T09:31:32.701Z,1.90
2023-03-12T09:33:59.043Z,2.05
2023-03-12T09:36:25.429Z,2.47
2023-03-12T09:38:51.766Z,2.00
2023-03-12T09:41:22.884Z,2.78
2023-03-12T09:44:21.512Z,3.78
2023-03-12T09:46:53.311Z,2.40
2023-03-12T09:49:25.155Z,2.50
2023-03-12T09:51:54.098Z,2.40
2023-03-12T09:54:36.594Z,3.30
2023-03-12T09:57:04.228Z,2.80
2023-03-12T09:59:30.640Z,2.22
2023-03-12T10:01:59.466Z,2.63
2023-03-12T10:04:59.028Z,3.85
2023-03-12T10:07:35.932Z,2.25
2023-03-12T10:10:02.378Z,3.53
2023-03-12T10:15:48.611Z,3.72
2023-03-12T10:18:15.056Z,4.63
2023-03-12T10:20:46.362Z,2.63
2023-03-12T10:23:28.031Z,3.83
2023-03-12T10:26:05.641Z,3.30
2023-03-12T10:28:34.969Z,2.88
2023-03-12T10:31:03.220Z,3.75
2023-03-12T10:33:47.694Z,4.13
2023-03-12T10:36:19.077Z,4.50
2023-03-12T10:38:45.617Z,5.25
2023-03-12T10:41:14.315Z,3.72
2023-03-12T10:43:41.199Z,4.13
2023-03-12T10:46:22.061Z,3.08
2023-03-12T10:48:48.451Z,4.43
2023-03-12T10:51:14.853Z,4.93
2023-03-12T10:53:44.682Z,4.00
2023-03-12T10:56:13.091Z,3.45
2023-03-12T10:58:41.118Z,4.22
2023-03-12T11:01:16.586Z,3.05
2023-03-12T11:03:43.562Z,3.58
2023-03-12T11:06:19.621Z,4.57
2023-03-12T11:09:15.788Z,4.15
2023-03-12T11:11:45.320Z,3.13
2023-03-12T11:14:19.364Z,3.42
2023-03-12T11:16:45.774Z,4.75
2023-03-12T11:19:13.046Z,3.92
2023-03-12T11:21:40.402Z,4.07
2023-03-12T11:24:11.661Z,5.05
2023-03-12T11:26:44.499Z,4.10
2023-03-12T11:29:31.433Z,3.17
2023-03-12T11:32:00.916Z,3.80
2023-03-12T11:34:29.613Z,3.08
2023-03-12T11:36:56.355Z,4.25
2023-03-12T11:39:28.676Z,3.72
2023-03-12T11:42:07.907Z,3.47
2023-03-12T11:44:53.304Z,4.35
2023-03-12T11:47:19.674Z,3.13
2023-03-12T11:49:48.505Z,3.00
2023-03-12T11:52:36.333Z,3.67
2023-03-12T11:55:15.807Z,4.28
2023-03-12T11:57:49.211Z,3.70
2023-03-12T12:00:17.462Z,4.72
2023-03-12T12:03:10.110Z,4.68
2023-03-12T12:05:54.513Z,2.95
2023-03-12T12:08:21.013Z,4.70
2023-03-12T12:10:59.339Z,3.65
2023-03-12T12:13:35.419Z,3.67
2023-03-12T12:16:01.840Z,5.03
2023-03-12T12:18:40.380Z,3.92
2023-03-12T12:21:39.848Z,4.70
2023-03-12T12:24:06.288Z,3.75
2023-03-12T12:26:44.494Z,4.47
2023-03-12T12:29:29.083Z,3.22
2023-03-12T12:31:56.855Z,4.47
2023-03-12T12:34:32.453Z,5.07
2023-03-12T12:37:19.022Z,4.43
2023-03-12T12:40:08.718Z,4.95
2023-03-12T12:42:36.671Z,4.38
2023-03-12T12:45:03.631Z,5.63
2023-03-12T12:47:34.288Z,6.32
2023-03-12T12:50:01.307Z,5.10
2023-03-12T12:52:28.311Z,3.92
2023-03-12T12:54:58.523Z,4.53
2023-03-12T12:57:29.181Z,3.05
2023-03-12T13:00:21.955Z,3.55
2023-03-12T13:02:49.236Z,5.05
2023-03-12T13:05:18.315Z,4.50
2023-03-12T13:07:44.718Z,4.85
2023-03-12T13:10:31.143Z,3.80
2023-03-12T13:12:57.582Z,5.13
2023-03-12T13:15:30.002Z,4.13
2023-03-12T13:17:56.487Z,3.97
2023-03-12T13:20:27.307Z,3.92
2023-03-12T13:23:14.383Z,3.50
2023-03-12T13:25:47.266Z,3.25
2023-03-12T13:28:35.521Z,4.43
2023-03-12T13:31:22.183Z,4.22
2023-03-12T13:33:49.333Z,4.07
2023-03-12T13:36:15.702Z,3.67
2023-03-12T13:39:01.093Z,4.18
2023-03-12T13:41:50.568Z,4.20
2023-03-12T13:44:22.805Z,4.43
2023-03-12T13:47:04.792Z,4.30
2023-03-12T13:49:41.689Z,4.90
2023-03-12T13:52:15.353Z,3.97
2023-03-12T13:54:47.756Z,2.80
2023-03-12T13:57:23.217Z,4.95
2023-03-12T13:59:50.558Z,4.05
2023-03-12T14:02:22.558Z,4.07
2023-03-12T14:04:49.007Z,4.60
2023-03-12T14:07:37.579Z,4.22
2023-03-12T14:10:06.560Z,4.82
2023-03-12T14:12:33.931Z,5.10
2023-03-12T14:15:07.278Z,5.43
2023-03-12T14:17:34.281Z,3.47
2023-03-12T14:20:02.199Z,5.18
2023-03-12T14:22:31.654Z,4.78
2023-03-12T14:24:59.334Z,4.80
2023-03-12T14:27:27.646Z,4.57
2023-03-12T14:30:16.349Z,6.30
2023-03-12T14:32:43.240Z,5.72
2023-03-12T14:35:23.378Z,5.68
2023-03-12T14:37:52.699Z,5.65
2023-03-12T14:40:24.085Z,3.88
2023-03-12T14:42:50.426Z,5.82
2023-03-12T14:45:21.589Z,5.75
2023-03-12T14:47:52.020Z,4.53
2023-03-12T14:50:18.481Z,4.60
2023-03-12T14:52:45.194Z,4.75
2023-03-12T14:55:13.334Z,4.63
2023-03-12T14:57:39.697Z,4.95
2023-03-12T15:00:14.300Z,4.93
2023-03-12T15:02:41.100Z,5.53
2023-03-12T15:05:15.514Z,4.18
2023-03-12T15:07:41.943Z,4.95
2023-03-12T15:10:18.366Z,4.82
2023-03-12T15:12:45.518Z,4.10
2023-03-12T15:15:23.131Z,4.88
2023-03-12T15:17:50.038Z,5.68
2023-03-12T15:20:16.749Z,5.28
2023-03-12T15:22:43.409Z,4.82
2023-03-12T15:25:22.911Z,4.93
2023-03-12T15:27:49.610Z,5.03
2023-03-12T15:30:25.402Z,5.50
2023-03-12T15:35:24.946Z,4.15
2023-03-12T15:37:53.450Z,4.78
2023-03-12T15:40:21.234Z,4.93
2023-03-12T15:42:47.880Z,4.20
2023-03-12T15:45:22.439Z,3.65
2023-03-12T15:47:49.781Z,5.43
2023-03-12T15:50:22.120Z,4.68
2023-03-12T15:53:25.556Z,5.88
2023-03-12T15:56:17.086Z,6.15
2023-03-12T15:58:43.497Z,4.60
2023-03-12T16:01:23.840Z,5.32
2023-03-12T16:03:50.361Z,5.20
2023-03-12T16:06:20.320Z,6.43
2023-03-12T16:08:48.416Z,6.07
2023-03-12T16:11:16.652Z,4.85
2023-03-12T16:13:44.342Z,4.55
2023-03-12T16:16:11.968Z,7.10
2023-03-12T16:18:38.331Z,6.60
2023-03-12T16:21:04.782Z,7.75
2023-03-12T16:23:31.215Z,6.60
2023-03-12T16:25:58.172Z,7.20
2023-03-12T16:28:24.841Z,7.05
2023-03-12T16:30:51.663Z,8.15
2023-03-12T16:33:19.750Z,8.20
2023-03-12T16:35:46.521Z,7.43
2023-03-12T16:38:12.920Z,6.55
2023-03-12T16:40:40.722Z,8.82
2023-03-12T16:43:07.588Z,7.97
2023-03-12T16:45:34.909Z,6.90
2023-03-12T16:48:02.750Z,6.85
2023-03-12T16:50:29.351Z,6.57
2023-03-12T16:52:55.662Z,7.07
2023-03-12T16:55:23.277Z,5.70
2023-03-12T16:57:57.850Z,6.03
2023-03-12T17:00:25.666Z,5.93
2023-03-12T17:02:54.971Z,4.60
2023-03-12T17:05:21.375Z,4.47
2023-03-12T17:07:47.727Z,4.28
2023-03-12T17:10:14.817Z,3.15
2023-03-12T17:12:41.513Z,3.50
2023-03-12T17:15:11.815Z,4.65
2023-03-12T17:17:38.125Z,3.55
2023-03-12T17:20:07.865Z,2.70
2023-03-12T17:22:34.310Z,3.13
2023-03-12T17:25:00.617Z,3.35
2023-03-12T17:27:27.004Z,3.20
2023-03-12T17:29:53.557Z,3.42
2023-03-12T17:32:19.952Z,2.60
2023-03-12T17:34:46.412Z,2.40
2023-03-12T17:37:12.803Z,3.03
2023-03-12T17:39:39.129Z,2.30
2023-03-12T17:42:05.484Z,2.42
2023-03-12T17:44:34.588Z,1.67
2023-03-12T17:47:02.027Z,3.38
2023-03-12T17:49:28.962Z,2.42
2023-03-12T17:51:55.728Z,2.90
2023-03-12T17:54:22.375Z,2.95
2023-03-12T17:56:48.755Z,2.92
2023-03-12T17:59:15.132Z,3.13
2023-03-12T18:01:41.514Z,3.40
2023-03-12T18:04:07.852Z,3.35
2023-03-12T18:06:34.207Z,2.83
2023-03-12T18:09:00.548Z,3.13
2023-03-12T18:11:26.915Z,3.15
2023-03-12T18:13:53.442Z,3.97
2023-03-12T18:16:19.783Z,4.10
2023-03-12T18:18:46.163Z,3.38
2023-03-12T18:21:12.518Z,3.30
2023-03-12T18:23:38.907Z,4.30
2023-03-12T18:26:05.489Z,4.57
2023-03-12T18:28:31.843Z,3.53
2023-03-12T18:30:58.177Z,3.83
2023-03-12T18:33:24.770Z,3.00
2023-03-12T18:35:53.232Z,3.45
2023-03-12T18:38:20.776Z,3.00
2023-03-12T18:40:47.129Z,2.95
2023-03-12T18:43:13.511Z,2.20
2023-03-12T18:45:46.455Z,3.25
2023-03-12T18:48:12.912Z,3.15
2023-03-12T18:50:39.406Z,3.00
2023-03-12T18:53:05.833Z,4.38
2023-03-12T18:55:32.149Z,2.83
2023-03-12T18:57:58.594Z,3.08
2023-03-12T19:00:24.933Z,2.40
2023-03-12T19:02:51.350Z,2.72
2023-03-12T19:05:17.854Z,2.47
2023-03-12T19:07:44.229Z,2.85
2023-03-12T19:10:11.200Z,2.67
2023-03-12T19:12:50.888Z,3.25
2023-03-12T19:15:18.301Z,2.75
2023-03-12T19:17:44.605Z,2.65
2023-03-12T19:20:11.515Z,2.90
2023-03-12T19:22:37.843Z,3.08
2023-03-12T19:25:04.357Z,3.13
2023-03-12T19:27:30.744Z,3.30
2023-03-12T19:29:57.213Z,2.08
2023-03-12T19:32:27.724Z,3.33
2023-03-12T19:34:59.488Z,3.05
2023-03-12T19:37:25.885Z,2.70
2023-03-12T19:39:53.434Z,2.95
2023-03-12T19:42:19.819Z,2.78
2023-03-12T19:44:46.388Z,4.18
2023-03-12T19:47:12.738Z,3.05
2023-03-12T19:49:39.100Z,3.67
2023-03-12T19:52:05.575Z,3.53
2023-03-12T19:54:32.277Z,3.75
2023-03-12T19:56:58.886Z,3.65
2023-03-12T19:59:25.292Z,3.85
2023-03-12T20:01:51.725Z,3.20
2023-03-12T20:04:18.158Z,3.53
2023-03-12T20:06:44.547Z,3.88
2023-03-12T20:09:11.025Z,3.22
2023-03-12T20:11:37.873Z,3.70
2023-03-12T20:14:04.576Z,2.65
2023-03-12T20:16:31.166Z,4.25
2023-03-12T20:18:57.633Z,3.50
2023-03-12T20:21:24.056Z,3.83
2023-03-12T20:23:50.713Z,2.92
2023-03-12T20:26:17.185Z,4.25
2023-03-12T20:28:43.850Z,3.88
2023-03-12T20:31:11.148Z,3.63
2023-03-12T20:33:37.989Z,3.42
2023-03-12T20:36:08.209Z,3.42
2023-03-12T20:38:34.722Z,3.20
2023-03-12T20:41:01.328Z,3.05
2023-03-12T20:43:27.813Z,3.42
2023-03-12T20:45:54.441Z,3.67
2023-03-12T20:48:21.223Z,3.92
2023-03-12T20:50:49.716Z,3.28
2023-03-12T20:53:16.042Z,3.75
2023-03-12T20:55:42.362Z,3.45
2023-03-12T20:58:08.836Z,3.20
2023-03-12T21:00:35.359Z,3.08
2023-03-12T21:03:01.717Z,2.83
2023-03-12T21:05:28.245Z,3.65
2023-03-12T21:07:58.029Z,3.42
2023-03-12T21:10:24.516Z,2.60
2023-03-12T21:12:50.972Z,2.90
2023-03-12T21:15:17.469Z,3.55
2023-03-12T21:17:43.818Z,3.75
2023-03-12T21:20:14.648Z,3.58
2023-03-12T21:22:43.508Z,3.83
2023-03-12T21:25:13.199Z,3.58
2023-03-12T21:27:50.013Z,3.05
2023-03-12T21:30:17.454Z,3.33
2023-03-12T21:32:44.142Z,2.60
2023-03-12T21:35:10.604Z,3.53
2023-03-12T21:37:37.254Z,3.47
2023-03-12T21:40:03.852Z,3.10
2023-03-12T21:42:33.222Z,3.58
2023-03-12T21:44:59.586Z,4.25
2023-03-12T21:47:25.959Z,3.92
2023-03-12T21:49:52.418Z,3.30
2023-03-12T21:52:18.788Z,3.80
2023-03-12T21:54:45.147Z,3.03
2023-03-12T21:57:11.716Z,3.50
2023-03-12T21:59:38.074Z,3.00
2023-03-12T22:02:04.446Z,3.63
2023-03-12T22:04:31.474Z,3.70
2023-03-12T22:06:57.943Z,4.13
2023-03-12T22:09:24.505Z,3.90
2023-03-12T22:11:50.957Z,5.18
2023-03-12T22:14:17.365Z,4.05
2023-03-12T22:16:44.073Z,4.13
2023-03-12T22:19:10.525Z,4.05
2023-03-12T22:21:36.853Z,4.80
2023-03-12T22:24:03.338Z,3.95
2023-03-12T22:26:29.884Z,5.07
2023-03-12T22:28:57.408Z,4.10
2023-03-12T22:31:24.970Z,5.00
2023-03-12T22:33:57.007Z,2.28
2023-03-12T22:36:23.477Z,4.30
2023-03-12T22:38:50.237Z,4.75
2023-03-12T22:41:27.517Z,5.15
2023-03-12T22:43:55.153Z,4.75
2023-03-12T22:46:22.774Z,4.60
2023-03-12T22:48:52.535Z,5.22
2023-03-12T22:51:19.079Z,4.75
2023-03-12T22:53:45.410Z,5.15
2023-03-12T22:56:12.450Z,4.43
2023-03-12T22:58:38.756Z,4.88
2023-03-12T23:01:06.526Z,4.10
2023-03-12T23:03:33.928Z,4.35
2023-03-12T23:06:00.782Z,3.45
2023-03-12T23:08:27.254Z,4.03
2023-03-12T23:10:54.584Z,3.88
2023-03-12T23:13:21.671Z,4.18
2023-03-12T23:15:48.294Z,4.05
2023-03-12T23:18:14.686Z,4.00
2023-03-12T23:20:41.073Z,3.97
2023-03-12T23:23:07.663Z,3.95
2023-03-12T23:25:34.086Z,2.53
2023-03-12T23:28:00.434Z,4.40
2023-03-12T23:30:26.823Z,3.58
2023-03-12T23:32:53.848Z,3.92
2023-03-12T23:35:20.596Z,3.35
2023-03-12T23:37:49.921Z,4.13
2023-03-12T23:40:17.127Z,3.42
2023-03-12T23:42:43.864Z,2.72
2023-03-12T23:45:11.328Z,2.55
2023-03-12T23:47:37.801Z,3.47
2023-03-12T23:50:04.765Z,3.17
2023-03-12T23:52:31.177Z,3.67
2023-03-12T23:54:57.480Z,3.42
2023-03-12T23:57:23.783Z,3.00
2023-03-12T23:59:50.142Z,3.08
